createdAt,value
2022-08-04T00:00:13.772Z,95674.31
2022-08-04T00:03:24.708Z,95681.03
2022-08-04T00:06:28.692Z,95679.84
2022-08-04T00:09:29.793Z,95675.88
2022-08-04T00:12:17.444Z,95676.69
2022-08-04T00:15:06.264Z,95670.34
2022-08-04T00:17:56.206Z,95671.16
2022-08-04T00:20:42.666Z,95671.16
2022-08-04T00:24:11.490Z,95673.53
2022-08-04T00:26:36.198Z,95669.56
2022-08-04T00:29:23.295Z,95671.94
2022-08-04T00:32:09.289Z,95670.75
2022-08-04T00:34:55.820Z,95673.50
2022-08-04T00:37:47.336Z,95671.13
2022-08-04T00:40:44.417Z,95666.44
2022-08-04T00:43:35.445Z,95669.56
2022-08-04T00:46:57.852Z,95668.78
2022-08-04T00:50:10.157Z,95666.41
2022-08-04T00:53:33.547Z,95673.53
2022-08-04T00:56:53.318Z,95674.31
2022-08-04T01:00:04.975Z,95673.53
2022-08-04T01:02:57.892Z,95670.38
2022-08-04T01:05:58.282Z,95679.06
2022-08-04T01:09:08.630Z,95672.75
2022-08-04T01:12:08.648Z,95664.84
2022-08-04T01:15:06.934Z,95675.50
2022-08-04T01:18:06.633Z,95664.06
2022-08-04T01:21:17.742Z,95671.56
2022-08-04T01:24:18.642Z,95666.44
2022-08-04T01:27:20.732Z,95658.53
2022-08-04T01:30:08.677Z,95660.09
2022-08-04T01:33:09.927Z,95653.78
2022-08-04T01:36:02.286Z,95674.31
2022-08-04T01:38:51.655Z,95668.78
2022-08-04T01:41:37.841Z,95662.47
2022-08-04T01:44:24.963Z,95658.53
2022-08-04T01:47:11.548Z,95657.69
2022-08-04T01:50:06.448Z,95668.78
2022-08-04T01:52:55.405Z,95653.38
2022-08-04T01:55:54.896Z,95655.34
2022-08-04T01:58:41.922Z,95659.28
2022-08-04T02:01:28.088Z,95656.13
2022-08-04T02:04:23.313Z,95654.53
2022-08-04T02:07:28.557Z,95655.31
2022-08-04T02:10:17.416Z,95661.63
2022-08-04T02:13:24.851Z,95666.34
2022-08-04T02:16:16.686Z,95659.25
2022-08-04T02:19:36.189Z,95654.53
2022-08-04T02:22:23.222Z,95660.84
2022-08-04T02:25:10.692Z,95661.63
2022-08-04T02:28:05.527Z,95665.59
2022-08-04T02:31:29.163Z,95670.28
2022-08-04T02:34:29.968Z,95668.72
2022-08-04T02:37:21.133Z,95671.88
2022-08-04T02:40:08.380Z,95670.28
2022-08-04T02:43:01.549Z,95660.81
2022-08-04T02:45:49.681Z,95667.16
2022-08-04T02:48:37.173Z,95673.06
2022-08-04T02:51:26.269Z,95663.19
2022-08-04T02:54:12.505Z,95667.13
2022-08-04T02:57:00.638Z,95666.72
2022-08-04T02:59:55.096Z,95663.94
2022-08-04T03:02:52.783Z,95667.91
2022-08-04T03:05:57.573Z,95669.06
2022-08-04T03:09:01.936Z,95665.50
2022-08-04T03:12:18.135Z,95668.28
2022-08-04T03:15:12.949Z,95670.25
2022-08-04T03:18:25.030Z,95669.44
2022-08-04T03:21:26.801Z,95664.69
2022-08-04T03:24:39.551Z,95676.91
2022-08-04T03:27:45.858Z,95675.72
2022-08-04T03:30:59.906Z,95676.53
2022-08-04T03:34:10.539Z,95670.97
2022-08-04T03:37:17.440Z,95664.66
2022-08-04T03:40:35.773Z,95670.97
2022-08-04T03:43:58.917Z,95674.88
2022-08-04T03:47:08.815Z,95671.75
2022-08-04T03:50:34.184Z,95677.28
2022-08-04T03:53:33.622Z,95676.84
2022-08-04T03:56:25.401Z,95671.75
2022-08-04T03:59:38.412Z,95678.44
2022-08-04T04:02:48.862Z,95671.34
2022-08-04T04:06:12.267Z,95671.72
2022-08-04T04:09:56.667Z,95687.47
2022-08-04T04:12:48.288Z,95683.56
2022-08-04T04:15:59.136Z,95680.81
2022-08-04T04:19:23.584Z,95679.97
2022-08-04T04:22:35.412Z,95687.44
2022-08-04T04:25:34.452Z,95689.78
2022-08-04T04:28:45.593Z,95683.47
2022-08-04T04:32:07.417Z,95681.09
2022-08-04T04:35:08.768Z,95687.44
2022-08-04T04:38:22.465Z,95685.88
2022-08-04T04:41:27.664Z,95692.16
2022-08-04T04:44:39.453Z,95694.50
2022-08-04T04:48:07.610Z,95694.53
2022-08-04T04:51:09.139Z,95694.91
2022-08-04T04:54:14.976Z,95694.53
2022-08-04T04:57:10.788Z,95689.00
2022-08-04T05:00:09.279Z,95686.66
2022-08-04T05:03:13.472Z,95688.66
2022-08-04T05:06:08.469Z,95689.09
2022-08-04T05:09:05.134Z,95692.97
2022-08-04T05:11:50.895Z,95700.94
2022-08-04T05:14:43.555Z,95691.44
2022-08-04T05:17:53.075Z,95693.44
2022-08-04T05:20:42.311Z,95701.75
2022-08-04T05:23:29.745Z,95693.88
2022-08-04T05:26:18.514Z,95697.44
2022-08-04T05:29:08.047Z,95693.09
2022-08-04T05:31:54.561Z,95696.25
2022-08-04T05:34:57.256Z,95684.81
2022-08-04T05:37:44.412Z,95693.91
2022-08-04T05:40:30.474Z,95703.38
2022-08-04T05:43:24.366Z,95693.88
2022-08-04T05:46:11.514Z,95705.75
2022-08-04T05:48:57.670Z,95693.91
2022-08-04T05:51:46.224Z,95691.94
2022-08-04T05:54:33.869Z,95694.69
2022-08-04T05:57:20.243Z,95691.53
2022-08-04T06:00:31.648Z,95703.38
2022-08-04T06:03:19.925Z,95699.44
2022-08-04T06:06:07.158Z,95698.63
2022-08-04T06:08:52.883Z,95697.06
2022-08-04T06:12:00.927Z,95698.69
2022-08-04T06:14:47.563Z,95697.09
2022-08-04T06:18:58.543Z,95693.94
2022-08-04T06:20:50.168Z,95705.00
2022-08-04T06:23:37.788Z,95699.50
2022-08-04T06:26:44.385Z,95698.69
2022-08-04T06:29:41.193Z,95707.78
2022-08-04T06:32:47.510Z,95701.88
2022-08-04T06:35:34.536Z,95698.72
2022-08-04T06:38:25.111Z,95696.38
2022-08-04T06:41:12.414Z,95700.69
2022-08-04T06:44:08.068Z,95712.16
2022-08-04T06:46:54.970Z,95702.75
2022-08-04T06:49:44.200Z,95701.94
2022-08-04T06:52:48.642Z,95694.81
2022-08-04T06:55:34.947Z,95701.56
2022-08-04T06:58:22.239Z,95698.00
2022-08-04T07:01:08.416Z,95699.59
2022-08-04T07:03:54.600Z,95688.53
2022-08-04T07:06:41.868Z,95701.97
2022-08-04T07:09:27.959Z,95700.38
2022-08-04T07:12:14.441Z,95703.56
2022-08-04T07:15:00.321Z,95697.22
2022-08-04T07:17:52.092Z,95698.81
2022-08-04T07:20:43.294Z,95692.50
2022-08-04T07:23:29.451Z,95687.75
2022-08-04T07:26:17.412Z,95690.53
2022-08-04T07:29:04.452Z,95690.91
2022-08-04T07:31:50.645Z,95687.75
2022-08-04T07:34:37.753Z,95679.84
2022-08-04T07:37:24.800Z,95679.03
2022-08-04T07:40:25.095Z,95681.41
2022-08-04T07:43:10.936Z,95675.88
2022-08-04T07:45:57.070Z,95688.53
2022-08-04T07:48:43.357Z,95679.84
2022-08-04T07:51:31.122Z,95676.31
2022-08-04T07:54:17.883Z,95682.19
2022-08-04T07:57:04.223Z,95675.88
2022-08-04T07:59:50.533Z,95681.03
2022-08-04T08:02:37.115Z,95688.13
2022-08-04T08:05:23.188Z,95687.75
2022-08-04T08:08:08.949Z,95692.47
2022-08-04T08:10:54.870Z,95682.97
2022-08-04T08:13:40.963Z,95671.91
2022-08-04T08:16:27.880Z,95686.13
2022-08-04T08:19:14.506Z,95685.31
2022-08-04T08:22:01.596Z,95691.66
2022-08-04T08:24:48.444Z,95680.56
2022-08-04T08:27:34.728Z,95690.44
2022-08-04T08:30:20.526Z,95685.28
2022-08-04T08:33:08.899Z,95692.41
2022-08-04T08:36:05.060Z,95689.22
2022-08-04T08:39:14.719Z,95685.66
2022-08-04T08:42:19.059Z,95688.41
2022-08-04T08:45:40.132Z,95684.44
2022-08-04T08:48:46.331Z,95687.63
2022-08-04T08:51:53.648Z,95685.63
2022-08-04T08:54:55.008Z,95685.19
2022-08-04T08:58:19.591Z,95685.19
2022-08-04T09:01:37.012Z,95680.84
2022-08-04T09:04:48.390Z,95680.41
2022-08-04T09:07:55.955Z,95675.66
2022-08-04T09:10:59.351Z,95677.22
2022-08-04T09:13:50.586Z,95673.22
2022-08-04T09:16:57.734Z,95677.16
2022-08-04T09:19:48.022Z,95665.25
2022-08-04T09:22:41.169Z,95667.59
2022-08-04T09:25:31.547Z,95667.59
2022-08-04T09:28:50.834Z,95670.38
2022-08-04T09:31:48.802Z,95670.72
2022-08-04T09:35:15.966Z,95667.56
2022-08-04T09:38:15.057Z,95664.41
2022-08-04T09:41:49.591Z,95671.50
2022-08-04T09:44:56.222Z,95667.56
2022-08-04T09:47:59.239Z,95669.13
2022-08-04T09:50:49.999Z,95672.25
2022-08-04T09:54:03.034Z,95672.25
2022-08-04T09:57:01.095Z,95664.34
2022-08-04T10:00:06.842Z,95654.84
2022-08-04T10:03:01.169Z,95657.19
2022-08-04T10:06:27.517Z,95658.38
2022-08-04T10:09:38.748Z,95656.72
2022-08-04T10:12:24.757Z,95652.34
2022-08-04T10:15:17.232Z,95650.69
2022-08-04T10:18:44.983Z,95651.41
2022-08-04T10:21:59.214Z,95642.66
2022-08-04T10:25:05.032Z,95641.00
2022-08-04T10:28:17.683Z,95642.56
2022-08-04T10:31:08.124Z,95643.84
2022-08-04T10:34:17.614Z,95638.47
2022-08-04T10:37:20.663Z,95642.16
2022-08-04T10:40:45.781Z,95636.72
2022-08-04T10:43:57.605Z,95639.16
2022-08-04T10:46:51.758Z,95624.13
2022-08-04T10:49:44.891Z,95628.81
2022-08-04T10:52:36.454Z,95633.91
2022-08-04T10:56:07.288Z,95623.16
2022-08-04T10:58:47.338Z,95626.94
2022-08-04T11:02:01.231Z,95629.22
2022-08-04T11:05:00.147Z,95620.38
2022-08-04T11:07:49.478Z,95614.75
2022-08-04T11:10:40.518Z,95601.97
2022-08-04T11:13:33.363Z,95610.25
2022-08-04T11:16:37.311Z,95609.78
2022-08-04T11:19:45.102Z,95614.44
2022-08-04T11:22:39.411Z,95603.22
2022-08-04T11:25:28.077Z,95604.75
2022-08-04T11:29:03.210Z,95608.63
2022-08-04T11:31:52.156Z,95601.06
2022-08-04T11:34:40.783Z,95600.59
2022-08-04T11:37:32.681Z,95600.16
2022-08-04T11:40:55.865Z,95591.00
2022-08-04T11:44:04.013Z,95589.28
2022-08-04T11:46:55.473Z,95588.72
2022-08-04T11:49:57.399Z,95581.44
2022-08-04T11:52:50.396Z,95583.25
2022-08-04T11:56:08.140Z,95577.28
2022-08-04T11:58:50.533Z,95568.91
2022-08-04T12:01:42.693Z,95572.78
2022-08-04T12:04:51.613Z,95561.19
2022-08-04T12:07:55.925Z,95561.47
2022-08-04T12:11:13.827Z,95554.94
2022-08-04T12:14:30.427Z,95558.38
2022-08-04T12:17:23.108Z,95556.25
2022-08-04T12:20:34.332Z,95554.94
2022-08-04T12:23:25.769Z,95555.91
2022-08-04T12:26:21.111Z,95558.06
2022-08-04T12:29:10.919Z,95553.94
2022-08-04T12:32:00.590Z,95556.22
2022-08-04T12:34:51.543Z,95556.94
2022-08-04T12:38:02.873Z,95552.44
2022-08-04T12:40:55.759Z,95560.38
2022-08-04T12:43:43.820Z,95554.22
2022-08-04T12:46:30.853Z,95559.72
2022-08-04T12:49:17.413Z,95550.84
2022-08-04T12:52:09.611Z,95553.81
2022-08-04T12:54:57.704Z,95545.66
2022-08-04T12:57:44.168Z,95542.59
2022-08-04T13:00:41.651Z,95541.09
2022-08-04T13:03:31.150Z,95541.44
2022-08-04T13:06:23.347Z,95538.69
2022-08-04T13:09:20.928Z,95533.47
2022-08-04T13:12:19.623Z,95532.75
2022-08-04T13:15:18.254Z,95522.59
2022-08-04T13:18:15.009Z,95518.31
2022-08-04T13:21:23.167Z,95521.09
2022-08-04T13:24:32.404Z,95507.97
2022-08-04T13:27:20.839Z,95517.06
2022-08-04T13:30:07.450Z,95510.28
2022-08-04T13:33:00.573Z,95505.25
2022-08-04T13:35:56.018Z,95496.59
2022-08-04T13:38:49.953Z,95505.38
2022-08-04T13:41:42.561Z,95502.69
2022-08-04T13:44:32.666Z,95501.56
2022-08-04T13:47:23.739Z,95506.31
2022-08-04T13:50:15.270Z,95498.38
2022-08-04T13:53:02.500Z,95497.91
2022-08-04T13:55:49.385Z,95490.28
2022-08-04T13:58:46.960Z,95494.53
2022-08-04T14:01:35.692Z,95488.28
2022-08-04T14:04:22.487Z,95483.09
2022-08-04T14:07:21.104Z,95494.63
2022-08-04T14:10:13.018Z,95478.97
2022-08-04T14:13:00.797Z,95481.28
2022-08-04T14:16:02.573Z,95490.91
2022-08-04T14:18:59.643Z,95490.66
2022-08-04T14:21:46.147Z,95485.16
2022-08-04T14:24:32.382Z,95484.06
2022-08-04T14:27:18.488Z,95498.88
2022-08-04T14:30:04.670Z,95481.63
2022-08-04T14:34:00.586Z,95481.41
2022-08-04T14:36:16.084Z,95473.16
2022-08-04T14:39:08.363Z,95479.66
2022-08-04T14:41:54.759Z,95472.97
2022-08-04T14:44:58.259Z,95462.34
2022-08-04T14:47:52.332Z,95478.56
2022-08-04T14:50:47.372Z,95474.41
2022-08-04T14:53:37.587Z,95480.25
2022-08-04T14:56:45.240Z,95473.91
2022-08-04T14:59:59.787Z,95465.53
2022-08-04T15:02:50.652Z,95471.94
2022-08-04T15:05:59.992Z,95471.72
2022-08-04T15:08:47.415Z,95469.53
2022-08-04T15:11:41.459Z,95475.44
2022-08-04T15:14:37.121Z,95473.19
2022-08-04T15:17:29.729Z,95470.03
2022-08-04T15:20:17.548Z,95474.69
2022-08-04T15:23:08.667Z,95477.47
2022-08-04T15:25:58.302Z,95480.53
2022-08-04T15:28:52.131Z,95473.00
2022-08-04T15:32:06.828Z,95475.22
2022-08-04T15:34:50.664Z,95471.00
2022-08-04T15:38:01.023Z,95469.53
2022-08-04T15:40:51.948Z,95465.25
2022-08-04T15:43:47.317Z,95472.34
2022-08-04T15:46:47.663Z,95470.16
2022-08-04T15:49:33.802Z,95465.03
2022-08-04T15:52:19.682Z,95464.13
2022-08-04T15:55:32.479Z,95472.53
2022-08-04T15:58:22.016Z,95461.72
2022-08-04T16:01:17.888Z,95460.28
2022-08-04T16:04:25.258Z,95454.13
2022-08-04T16:07:11.246Z,95457.31
2022-08-04T16:10:32.719Z,95458.94
2022-08-04T16:13:23.312Z,95448.41
2022-08-04T16:16:09.446Z,95449.75
2022-08-04T16:19:04.935Z,95450.34
2022-08-04T16:21:52.725Z,95441.16
2022-08-04T16:24:42.776Z,95448.59
2022-08-04T16:27:37.907Z,95453.19
2022-08-04T16:30:23.942Z,95454.06
2022-08-04T16:33:10.119Z,95450.59
2022-08-04T16:36:07.947Z,95448.38
2022-08-04T16:39:04.809Z,95457.97
2022-08-04T16:41:50.692Z,95450.56
2022-08-04T16:44:52.733Z,95453.78
2022-08-04T16:47:49.278Z,95444.41
2022-08-04T16:50:52.216Z,95455.22
2022-08-04T16:54:03.929Z,95455.78
2022-08-04T16:56:45.188Z,95447.56
2022-08-04T16:59:31.438Z,95451.25
2022-08-04T17:02:24.434Z,95461.72
2022-08-04T17:05:39.766Z,95461.94
2022-08-04T17:08:29.984Z,95462.47
2022-08-04T17:11:17.003Z,95463.00
2022-08-04T17:14:05.673Z,95468.34
2022-08-04T17:16:53.640Z,95463.38
2022-08-04T17:19:39.627Z,95470.72
2022-08-04T17:22:25.802Z,95484.31
2022-08-04T17:25:12.099Z,95481.72
2022-08-04T17:28:08.773Z,95478.28
2022-08-04T17:31:10.003Z,95489.19
2022-08-04T17:33:58.356Z,95498.09
2022-08-04T17:36:44.377Z,95491.13
2022-08-04T17:39:35.050Z,95501.22
2022-08-04T17:42:32.923Z,95499.38
2022-08-04T17:48:25.287Z,95499.63
2022-08-04T17:51:17.019Z,95502.94
2022-08-04T17:54:06.599Z,95507.75
2022-08-04T17:56:58.040Z,95513.06
2022-08-04T17:59:55.495Z,95514.03
2022-08-04T18:02:53.349Z,95513.47
2022-08-04T18:06:01.399Z,95518.69
2022-08-04T18:08:52.370Z,95518.34
2022-08-04T18:11:44.072Z,95510.16
2022-08-04T18:14:43.921Z,95522.13
2022-08-04T18:18:21.135Z,95529.78
2022-08-04T18:20:46.472Z,95527.50
2022-08-04T18:23:43.480Z,95526.38
2022-08-04T18:26:38.423Z,95530.38
2022-08-04T18:29:31.897Z,95530.53
2022-08-04T18:32:20.808Z,95527.53
2022-08-04T18:35:07.621Z,95536.25
2022-08-04T18:38:06.527Z,95548.25
2022-08-04T18:40:55.248Z,95546.31
2022-08-04T18:43:41.920Z,95553.06
2022-08-04T18:46:52.565Z,95565.09
2022-08-04T18:51:00.404Z,95555.63
2022-08-04T18:52:46.606Z,95562.84
2022-08-04T18:55:57.502Z,95565.72
2022-08-04T18:58:39.121Z,95569.38
2022-08-04T19:01:30.408Z,95570.59
2022-08-04T19:04:36.529Z,95574.66
2022-08-04T19:07:25.136Z,95570.78
2022-08-04T19:10:23.799Z,95574.47
2022-08-04T19:13:24.923Z,95576.09
2022-08-04T19:16:16.703Z,95590.13
2022-08-04T19:19:07.492Z,95587.09
2022-08-04T19:22:00.430Z,95594.66
2022-08-04T19:24:49.783Z,95597.13
2022-08-04T19:30:42.579Z,95601.22
2022-08-04T19:33:58.442Z,95606.81
2022-08-04T19:36:36.118Z,95614.06
2022-08-04T19:39:23.986Z,95601.91
2022-08-04T19:42:11.027Z,95603.09
2022-08-04T19:44:58.499Z,95609.47
2022-08-04T19:48:12.141Z,95610.31
2022-08-04T19:50:52.955Z,95615.16
2022-08-04T19:53:43.192Z,95608.47
2022-08-04T19:56:29.611Z,95609.28
2022-08-04T19:59:27.142Z,95610.56
2022-08-04T20:02:18.402Z,95612.19
2022-08-04T20:05:05.027Z,95609.88
2022-08-04T20:07:55.446Z,95612.31
2022-08-04T20:10:47.006Z,95616.34
2022-08-04T20:13:38.668Z,95621.16
2022-08-04T20:16:29.741Z,95618.84
2022-08-04T20:19:16.893Z,95621.31
2022-08-04T20:22:04.065Z,95622.88
2022-08-04T20:25:00.634Z,95628.53
2022-08-04T20:28:00.640Z,95622.22
2022-08-04T20:30:47.651Z,95627.00
2022-08-04T20:33:35.147Z,95633.41
2022-08-04T20:36:24.144Z,95626.34
2022-08-04T20:39:15.691Z,95633.13
2022-08-04T20:42:01.768Z,95631.97
2022-08-04T20:44:49.015Z,95627.25
2022-08-04T20:47:36.082Z,95632.06
2022-08-04T20:50:29.476Z,95625.00
2022-08-04T20:53:17.354Z,95625.88
2022-08-04T20:56:03.931Z,95632.19
2022-08-04T20:58:52.821Z,95627.47
2022-08-04T21:01:45.379Z,95629.47
2022-08-04T21:04:48.558Z,95625.56
2022-08-04T21:07:36.450Z,95636.25
2022-08-04T21:10:28.147Z,95631.56
2022-08-04T21:13:14.057Z,95641.88
2022-08-04T21:15:59.939Z,95650.97
2022-08-04T21:18:50.283Z,95640.72
2022-08-04T21:21:36.194Z,95651.00
2022-08-04T21:24:26.277Z,95661.72
2022-08-04T21:27:12.739Z,95658.22
2022-08-04T21:29:59.848Z,95653.84
2022-08-04T21:32:45.766Z,95645.97
2022-08-04T21:35:37.963Z,95659.47
2022-08-04T21:38:28.397Z,95657.19
2022-08-04T21:41:24.195Z,95662.28
2022-08-04T21:44:14.375Z,95656.41
2022-08-04T21:47:00.397Z,95666.69
2022-08-04T21:49:56.479Z,95661.97
2022-08-04T21:52:44.222Z,95663.94
2022-08-04T21:56:04.674Z,95669.13
2022-08-04T21:58:37.597Z,95665.97
2022-08-04T22:01:50.394Z,95669.13
2022-08-04T22:04:30.909Z,95676.25
2022-08-04T22:07:17.002Z,95678.69
2022-08-04T22:10:04.442Z,95677.09
2022-08-04T22:12:51.998Z,95671.63
2022-08-04T22:16:03.662Z,95685.88
2022-08-04T22:19:02.194Z,95683.50
2022-08-04T22:21:48.301Z,95682.75
2022-08-04T22:24:35.480Z,95681.97
2022-08-04T22:27:40.040Z,95684.75
2022-08-04T22:30:29.210Z,95680.44
2022-08-04T22:33:22.915Z,95688.38
2022-08-04T22:36:10.695Z,95686.41
2022-08-04T22:39:04.501Z,95690.78
2022-08-04T22:42:03.541Z,95688.44
2022-08-04T22:44:50.682Z,95676.59
2022-08-04T22:47:37.149Z,95688.41
2022-08-04T22:50:27.585Z,95686.06
2022-08-04T22:53:17.685Z,95690.03
2022-08-04T22:56:09.588Z,95678.16
2022-08-04T22:58:57.407Z,95675.00
2022-08-04T23:01:58.947Z,95672.28
2022-08-04T23:04:47.489Z,95675.84
2022-08-04T23:07:49.027Z,95678.22
2022-08-04T23:10:38.421Z,95676.63
2022-08-04T23:13:27.626Z,95679.03
2022-08-04T23:16:13.478Z,95668.75
2022-08-04T23:19:00.026Z,95676.66
2022-08-04T23:21:47.302Z,95677.06
2022-08-04T23:24:34.129Z,95666.41
2022-08-04T23:27:20.375Z,95662.84
2022-08-04T23:30:07.709Z,95668.78
2022-08-04T23:32:54.072Z,95661.69
2022-08-04T23:35:40.205Z,95661.28
2022-08-04T23:38:31.188Z,95657.75
2022-08-04T23:41:18.828Z,95657.75
2022-08-04T23:44:06.538Z,95659.28
2022-08-04T23:47:03.329Z,95660.09
2022-08-04T23:49:50.415Z,95661.25
2022-08-04T23:52:36.409Z,95652.19
2022-08-04T23:55:22.138Z,95660.88
2022-08-04T23:58:18.907Z,95659.28
